Time;durP1;ratioP1;P1;durP2;ratioP2;P2;SDS_P1;SDS_P2;PMS_P1;PMS_P2;Temp;Humidity;BMP_temperature;BMP_pressure;BME280_temperature;BME280_humidity;BME280_pressure;Samples;Min_cycle;Max_cycle;Signal;HPM_P1;HPM_P2
2022/04/11 00:02:00;;;;;;;59.40;34.20;;;;;;;1.01;83.14;98560.06;105911;1280;137388;-80
2022/04/11 00:04:28;;;;;;;60.30;33.30;;;;;;;0.99;82.97;98561.96;105767;1280;22543;-80
2022/04/11 00:06:55;;;;;;;64.90;34.90;;;;;;;0.92;82.95;98565.03;105804;1280;137889;-80
2022/04/11 00:09:36;;;;;;;55.60;31.80;;;;;;;0.88;83.27;98566.85;105737;1281;22657;-80
2022/04/11 00:12:03;;;;;;;59.60;31.80;;;;;;;0.83;83.49;98566.65;105720;1281;138289;-80
2022/04/11 00:14:30;;;;;;;54.80;29.40;;;;;;;0.84;83.58;98573.69;105998;1281;22571;-81
2022/04/11 00:16:58;;;;;;;55.40;30.10;;;;;;;0.84;83.57;98573.68;105877;1280;24259;-81
2022/04/11 00:19:26;;;;;;;50.60;28.80;;;;;;;0.86;83.93;98568.06;105834;1280;137613;-81
2022/04/11 00:21:53;;;;;;;53.00;30.90;;;;;;;0.89;84.01;98571.30;105892;1280;25274;-81
2022/04/11 00:24:20;;;;;;;55.60;29.50;;;;;;;0.89;83.98;98565.36;105787;1280;139108;-80
2022/04/11 00:26:47;;;;;;;50.50;28.20;;;;;;;0.91;83.97;98568.42;105886;1281;23151;-80
2022/04/11 00:29:15;;;;;;;48.20;27.30;;;;;;;0.93;84.05;98565.86;105886;1280;25321;-80
2022/04/11 00:31:42;;;;;;;49.40;28.30;;;;;;;0.94;84.00;98564.66;105774;1280;137295;-80
2022/04/11 00:34:09;;;;;;;53.20;27.30;;;;;;;0.95;83.99;98568.70;105797;1280;25255;-81
2022/04/11 00:36:50;;;;;;;48.20;28.30;;;;;;;0.93;84.03;98568.02;105842;1280;137471;-81
2022/04/11 00:39:16;;;;;;;50.50;28.00;;;;;;;0.91;83.76;98563.93;105953;1280;22679;-82
2022/04/11 00:41:44;;;;;;;47.00;27.20;;;;;;;0.91;84.02;98567.85;105878;1280;31825;-80
2022/04/11 00:44:11;;;;;;;48.70;28.60;;;;;;;0.89;83.99;98566.98;105827;1280;137126;-81
2022/04/11 00:46:38;;;;;;;50.60;27.80;;;;;;;0.88;84.09;98565.22;105977;1280;24537;-81
2022/04/11 00:49:21;;;;;;;53.60;29.40;;;;;;;0.86;84.06;98564.52;105783;1280;137545;-81
2022/04/11 00:51:47;;;;;;;51.00;26.40;;;;;;;0.84;84.46;98565.44;105454;1279;139744;-81
2022/04/11 00:54:15;;;;;;;45.30;26.40;;;;;;;0.83;84.21;98568.66;105923;1280;24333;-82
2022/04/11 00:56:44;;;;;;;48.60;26.20;;;;;;;0.83;84.47;98576.91;105956;1280;25316;-82
2022/04/11 00:59:13;;;;;;;49.50;26.70;;;;;;;0.81;84.41;98576.02;105825;1280;137342;-80
2022/04/11 01:01:40;;;;;;;46.70;26.50;;;;;;;0.79;84.61;98582.01;105916;1280;22995;-81
2022/04/11 01:04:24;;;;;;;55.90;27.80;;;;;;;0.75;84.32;98579.34;105765;1280;137733;-81
2022/04/11 01:06:55;;;;;;;47.70;27.20;;;;;;;0.74;84.51;98580.80;105779;1280;25407;-81
2022/04/11 01:09:23;;;;;;;44.90;22.20;;;;;;;0.71;84.23;98579.84;105827;1280;138391;-82
2022/04/11 01:11:54;;;;;;;41.30;23.60;;;;;;;0.69;84.67;98581.14;106129;1280;25265;-81
2022/04/11 01:14:21;;;;;;;45.00;23.20;;;;;;;0.66;84.43;98579.31;105832;1278;24192;-81
2022/04/11 01:16:52;;;;;;;41.20;22.00;;;;;;;0.66;84.43;98582.96;105805;1280;137567;-81
2022/04/11 01:19:20;;;;;;;44.90;23.20;;;;;;;0.64;84.50;98581.03;105877;1280;24304;-81
2022/04/11 01:21:47;;;;;;;44.60;23.10;;;;;;;0.65;84.82;98580.18;105692;1281;138307;-81
2022/04/11 01:24:22;;;;;;;43.20;21.30;;;;;;;0.67;84.85;98581.29;105821;1280;22550;-80
2022/04/11 01:26:50;;;;;;;41.20;21.70;;;;;;;0.67;84.82;98581.41;105730;1281;22548;-80
2022/04/11 01:29:22;;;;;;;35.90;19.70;;;;;;;0.68;84.71;98579.80;105781;1280;137380;-82
2022/04/11 01:31:49;;;;;;;40.00;22.00;;;;;;;0.69;84.84;98583.48;105939;1280;22548;-81
2022/04/11 01:34:16;;;;;;;43.50;23.90;;;;;;;0.69;84.95;98580.46;105725;1280;137951;-80
2022/04/11 01:36:43;;;;;;;43.10;23.30;;;;;;;0.68;84.86;98584.16;105863;1280;24323;-80
2022/04/11 01:39:12;;;;;;;46.70;21.90;;;;;;;0.68;84.95;98589.30;105934;1280;24310;-80
2022/04/11 01:41:53;;;;;;;42.60;21.50;;;;;;;0.69;84.95;98590.95;105985;1280;137713;-81
2022/04/11 01:44:28;;;;;;;43.70;23.40;;;;;;;0.71;85.09;98592.67;105913;1280;25332;-80
2022/04/11 01:46:57;;;;;;;38.60;21.40;;;;;;;0.73;85.13;98596.39;105707;1280;137607;-80
2022/04/11 01:49:39;;;;;;;46.30;23.80;;;;;;;0.73;85.10;98600.64;105770;1279;24328;-80
2022/04/11 01:52:06;;;;;;;40.60;21.90;;;;;;;0.75;84.94;98598.54;105708;1279;138393;-80
2022/04/11 01:54:33;;;;;;;44.30;22.90;;;;;;;0.76;85.23;98598.53;105843;1279;25495;-80
2022/04/11 01:57:01;;;;;;;41.60;23.10;;;;;;;0.79;85.11;98601.48;105807;1280;22669;-81
2022/04/11 01:59:28;;;;;;;43.10;22.60;;;;;;;0.83;85.09;98603.14;105789;1280;137781;-81
2022/04/11 02:01:55;;;;;;;42.20;23.50;;;;;;;0.85;85.09;98606.13;105912;1280;22586;-80
2022/04/11 02:04:22;;;;;;;43.40;23.10;;;;;;;0.84;85.04;98604.77;105858;1280;137323;-81
2022/04/11 02:06:57;;;;;;;46.60;24.10;;;;;;;0.86;84.96;98603.73;106011;1280;22552;-81
2022/04/11 02:09:28;;;;;;;44.00;22.30;;;;;;;0.87;84.94;98606.90;106079;1280;22825;-80
2022/04/11 02:12:09;;;;;;;40.90;21.10;;;;;;;0.89;84.99;98605.24;105955;1280;137503;-81
2022/04/11 02:14:36;;;;;;;38.10;21.40;;;;;;;0.90;84.89;98606.21;106249;1279;25490;-80
2022/04/11 02:17:03;;;;;;;44.80;22.90;;;;;;;0.89;84.92;98604.73;106067;1281;137436;-80
2022/04/11 02:19:44;;;;;;;47.40;21.70;;;;;;;0.87;84.69;98604.77;106164;1281;22573;-80
2022/04/11 02:22:11;;;;;;;45.60;23.50;;;;;;;0.84;84.74;98606.17;105988;1280;138634;-80
2022/04/11 02:24:38;;;;;;;39.60;22.70;;;;;;;0.81;84.67;98605.84;106104;1280;25430;-80
2022/04/11 02:27:06;;;;;;;44.60;24.10;;;;;;;0.82;84.64;98614.48;106033;1279;24330;-80
2022/04/11 02:29:32;;;;;;;39.90;21.80;;;;;;;0.83;84.84;98619.52;105969;1280;137416;-79
2022/04/11 02:31:59;;;;;;;35.80;18.50;;;;;;;0.84;84.80;98623.62;105959;1281;22563;-79
2022/04/11 02:34:27;;;;;;;44.70;24.80;;;;;;;0.81;84.71;98626.05;105915;1281;138246;-79
2022/04/11 02:36:54;;;;;;;46.70;23.80;;;;;;;0.80;84.91;98622.64;106076;1281;23934;-80
2022/04/11 02:39:21;;;;;;;43.00;23.90;;;;;;;0.81;84.81;98624.98;106128;1281;24271;-80
2022/04/11 02:41:49;;;;;;;39.40;22.60;;;;;;;0.82;84.90;98629.48;105862;1279;138034;-80
2022/04/11 02:44:16;;;;;;;41.60;20.90;;;;;;;0.79;84.54;98631.98;105956;1279;22554;-80
2022/04/11 02:46:57;;;;;;;47.90;23.80;;;;;;;0.78;84.68;98632.46;106021;1280;137215;-80
2022/04/11 02:49:26;;;;;;;44.30;24.70;;;;;;;0.77;84.84;98636.36;106146;1280;24241;-80
2022/04/11 02:52:03;;;;;;;43.90;25.10;;;;;;;0.77;84.84;98636.89;105928;1280;138140;-80
2022/04/11 02:54:30;;;;;;;43.90;24.60;;;;;;;0.77;84.89;98635.79;105809;1280;22559;-80
2022/04/11 02:56:57;;;;;;;47.60;22.80;;;;;;;0.80;84.73;98637.98;105900;1280;22563;-80
2022/04/11 02:59:24;;;;;;;38.80;21.80;;;;;;;0.82;84.96;98640.08;105950;1280;137632;-80
2022/04/11 03:01:55;;;;;;;39.10;21.30;;;;;;;0.83;84.92;98641.58;106082;1279;22557;-80
2022/04/11 03:04:26;;;;;;;46.10;24.90;;;;;;;0.84;84.88;98642.88;105949;1280;137550;-80
2022/04/11 03:07:16;;;;;;;42.60;24.00;;;;;;;0.86;84.81;98645.73;106007;1281;22552;-80
2022/04/11 03:09:44;;;;;;;42.80;22.60;;;;;;;0.88;84.70;98644.77;105957;1281;22541;-80
2022/04/11 03:12:26;;;;;;;37.90;22.40;;;;;;;0.91;84.60;98643.80;105904;1279;137569;-80
2022/04/11 03:14:53;;;;;;;42.90;23.10;;;;;;;0.93;84.69;98644.30;105951;1279;22569;-80
2022/04/11 03:17:20;;;;;;;40.70;23.40;;;;;;;0.95;84.60;98647.29;106059;1280;137239;-80
2022/04/11 03:19:50;;;;;;;45.00;24.60;;;;;;;0.97;84.75;98648.69;105959;1280;22572;-80
2022/04/11 03:22:17;;;;;;;47.50;24.60;;;;;;;1.00;84.83;98647.80;105838;1280;138265;-80
2022/04/11 03:24:48;;;;;;;41.30;23.20;;;;;;;1.06;84.69;98648.52;106002;1279;24309;-80
2022/04/11 03:27:15;;;;;;;41.80;23.20;;;;;;;1.08;84.57;98646.33;106029;1279;22562;-80
2022/04/11 03:29:45;;;;;;;41.80;23.10;;;;;;;1.11;84.41;98649.09;105820;1279;138213;-80
2022/04/11 03:32:18;;;;;;;41.30;23.50;;;;;;;1.12;84.40;98648.95;106217;1279;24231;-80
2022/04/11 03:34:45;;;;;;;40.30;23.40;;;;;;;1.13;84.41;98647.91;105856;1278;138149;-80
2022/04/11 03:37:29;;;;;;;46.10;24.90;;;;;;;1.14;84.31;98647.75;106160;1280;22539;-80
2022/04/11 03:40:03;;;;;;;43.00;23.60;;;;;;;1.17;84.24;98654.41;105895;1280;25455;-80
2022/04/11 03:42:30;;;;;;;36.70;22.50;;;;;;;1.20;84.33;98649.79;105967;1280;137720;-80
2022/04/11 03:45:11;;;;;;;43.30;23.10;;;;;;;1.23;84.31;98655.91;105964;1279;22661;-80
2022/04/11 03:47:47;;;;;;;41.80;27.40;;;;;;;1.26;84.26;98654.84;105979;1279;137568;-80
2022/04/11 03:50:29;;;;;;;41.00;22.20;;;;;;;1.24;84.07;98658.91;106027;1279;24339;-80
2022/04/11 03:52:56;;;;;;;41.50;24.30;;;;;;;1.19;83.58;98662.11;106077;1279;138003;-80
2022/04/11 03:55:40;;;;;;;36.80;20.90;;;;;;;1.13;83.82;98661.98;105787;1280;29100;-80
2022/04/11 03:58:10;;;;;;;37.00;20.30;;;;;;;1.14;83.80;98668.17;105630;1280;138317;-80
2022/04/11 04:00:39;;;;;;;39.10;20.60;;;;;;;1.12;84.12;98674.66;106276;1280;24384;-81
2022/04/11 04:03:16;;;;;;;41.70;21.70;;;;;;;1.13;84.37;98677.50;105923;1280;23326;-80
2022/04/11 04:05:47;;;;;;;44.80;23.10;;;;;;;1.15;84.25;98675.56;105919;1280;137678;-80
2022/04/11 04:08:23;;;;;;;40.50;22.50;;;;;;;1.18;84.19;98672.36;105921;1280;22764;-80
2022/04/11 04:10:57;;;;;;;38.60;21.90;;;;;;;1.23;84.47;98678.20;105931;1280;137780;-80
2022/04/11 04:13:25;;;;;;;38.60;21.90;;;;;;;1.27;84.48;98675.71;106558;1279;26631;-80
2022/04/11 04:15:54;;;;;;;41.50;22.00;;;;;;;1.32;84.49;98675.88;106386;1280;22673;-80
2022/04/11 04:18:25;;;;;;;43.40;22.90;;;;;;;1.36;84.27;98678.88;105975;1280;137315;-80
2022/04/11 04:20:59;;;;;;;44.60;24.80;;;;;;;1.38;84.42;98677.21;105898;1280;22614;-80
2022/04/11 04:23:26;;;;;;;43.00;23.90;;;;;;;1.41;84.27;98678.05;106257;1279;138058;-80
2022/04/11 04:25:54;;;;;;;39.80;22.80;;;;;;;1.46;84.14;98680.31;106179;1280;25522;-80
2022/04/11 04:28:23;;;;;;;;;;;;;;;1.51;84.21;98680.70;106253;1280;137660;-80
2022/04/11 04:30:52;;;;;;;39.60;21.10;;;;;;;1.54;84.12;98682.48;106370;1279;25412;-80
2022/04/11 04:33:20;;;;;;;43.30;23.80;;;;;;;1.56;83.97;98683.86;106387;1280;24316;-80
2022/04/11 04:35:49;;;;;;;44.70;25.00;;;;;;;1.55;84.02;98686.95;106204;1280;138754;-80
2022/04/11 04:38:16;;;;;;;39.00;22.40;;;;;;;1.58;83.75;98687.73;106333;1280;22563;-80
2022/04/11 04:40:49;;;;;;;39.90;20.70;;;;;;;1.62;83.68;98697.30;106257;1280;138416;-81
2022/04/11 04:43:19;;;;;;;36.10;20.20;;;;;;;1.64;83.65;98703.27;106176;1279;22628;-80
2022/04/11 04:45:47;;;;;;;34.20;19.10;;;;;;;1.66;83.63;98706.66;106379;1280;22558;-80
2022/04/11 04:48:44;;;;;;;34.40;20.20;;;;;;;1.67;83.57;98715.30;106287;1280;137661;-80
2022/04/11 04:51:11;;;;;;;38.40;20.50;;;;;;;1.67;83.56;98712.38;106204;1280;22551;-80
2022/04/11 04:53:43;;;;;;;31.10;19.20;;;;;;;1.69;83.52;98716.45;106274;1280;138828;-80
2022/04/11 04:56:24;;;;;;;30.50;16.70;;;;;;;1.74;83.41;98718.19;106332;1279;22544;-81
2022/04/11 04:58:56;;;;;;;32.50;17.60;;;;;;;1.77;83.22;98720.96;106211;1279;138109;-79
2022/04/11 05:01:23;;;;;;;30.00;17.80;;;;;;;1.79;83.45;98722.48;105732;1280;22550;-79
2022/04/11 05:03:51;;;;;;;30.60;18.60;;;;;;;1.81;83.06;98719.70;105953;1280;25552;-79
2022/04/11 05:06:22;;;;;;;32.90;18.40;;;;;;;1.83;83.13;98721.42;106019;1280;137406;-79
2022/04/11 05:08:50;;;;;;;32.80;18.20;;;;;;;1.86;83.11;98723.08;105859;1279;22623;-78
2022/04/11 05:11:19;;;;;;;33.70;17.20;;;;;;;1.90;83.10;98719.55;105996;1279;137949;-78
2022/04/11 05:13:50;;;;;;;32.90;17.30;;;;;;;1.95;83.01;98728.67;106034;1280;22589;-78
2022/04/11 05:16:23;;;;;;;35.90;18.70;;;;;;;1.98;83.12;98731.79;105738;1279;22713;-78
2022/04/11 05:18:55;;;;;;;25.30;14.80;;;;;;;2.02;82.79;98733.30;105845;1279;137348;-77
2022/04/11 05:21:23;;;;;;;30.20;20.50;;;;;;;2.04;82.81;98740.50;106033;1279;23401;-78
2022/04/11 05:24:04;;;;;;;28.50;18.10;;;;;;;2.08;82.77;98746.24;105969;1279;138179;-77
2022/04/11 05:26:31;;;;;;;33.80;18.90;;;;;;;2.11;82.71;98750.13;105937;1279;22565;-77
2022/04/11 05:29:03;;;;;;;;;;;;;;;2.17;82.69;98753.06;105903;1280;139147;-77
2022/04/11 05:31:31;;;;;;;26.90;16.40;;;;;;;2.21;82.61;98754.20;105903;1280;24257;-77
2022/04/11 05:34:01;;;;;;;33.10;19.60;;;;;;;2.24;82.57;98757.62;106093;1280;25273;-77
2022/04/11 05:36:28;;;;;;;43.90;21.80;;;;;;;2.27;82.58;98760.91;105861;1280;137745;-77
2022/04/11 05:38:57;;;;;;;31.10;18.80;;;;;;;2.30;82.31;98762.02;106070;1281;22564;-79
2022/04/11 05:41:25;;;;;;;27.30;17.00;;;;;;;2.33;82.09;98762.42;105908;1281;138236;-77
2022/04/11 05:43:54;;;;;;;31.30;18.50;;;;;;;2.32;82.00;98763.58;105820;1281;22698;-77
2022/04/11 05:46:25;;;;;;;30.10;17.20;;;;;;;2.36;82.35;98764.71;106390;1279;25402;-77
2022/04/11 05:49:01;;;;;;;24.50;14.40;;;;;;;2.38;82.20;98773.66;106036;1280;137098;-78
2022/04/11 05:51:30;;;;;;;29.90;16.90;;;;;;;2.37;82.22;98773.45;105821;1281;24361;-77
2022/04/11 05:53:57;;;;;;;34.60;18.10;;;;;;;2.35;82.10;98776.69;106096;1280;138542;-76
2022/04/11 05:56:25;;;;;;;28.10;16.60;;;;;;;2.34;81.88;98778.91;106109;1280;24235;-76
2022/04/11 05:58:52;;;;;;;28.20;17.20;;;;;;;2.36;82.00;98781.92;105874;1279;137968;-75
2022/04/11 06:01:19;;;;;;;29.10;17.80;;;;;;;2.37;82.04;98783.03;105765;1280;22545;-75
2022/04/11 06:03:46;;;;;;;29.00;16.30;;;;;;;2.39;82.19;98781.55;105845;1280;267747;-75
2022/04/11 06:06:27;;;;;;;22.10;14.00;;;;;;;2.41;82.09;98783.72;105240;1282;137744;-75
2022/04/11 06:08:54;;;;;;;29.10;16.20;;;;;;;2.43;81.84;98784.88;105596;1280;25544;-75
2022/04/11 06:11:21;;;;;;;23.90;13.90;;;;;;;2.46;81.41;98783.39;105834;1280;139257;-74
2022/04/11 06:13:49;;;;;;;23.90;12.20;;;;;;;2.51;81.49;98780.85;106274;1281;22678;-74
2022/04/11 06:16:18;;;;;;;20.30;11.50;;;;;;;2.57;81.30;98779.64;106152;1280;22700;-74
2022/04/11 06:18:46;;;;;;;18.10;8.80;;;;;;;2.60;81.29;98775.61;106154;1280;137619;-74
2022/04/11 06:21:15;;;;;;;15.80;9.30;;;;;;;2.63;80.12;98771.63;106223;1280;25526;-74
2022/04/11 06:23:42;;;;;;;17.40;9.90;;;;;;;2.65;80.63;98772.70;105679;1280;137593;-74
2022/04/11 06:26:09;;;;;;;16.30;8.60;;;;;;;2.72;80.24;98773.55;106231;1280;22655;-74
2022/04/11 06:28:41;;;;;;;14.00;8.90;;;;;;;2.80;79.80;98767.27;105734;1280;137885;-74
2022/04/11 06:31:10;;;;;;;19.30;8.20;;;;;;;2.89;79.60;98766.42;106050;1280;22796;-76
2022/04/11 06:33:38;;;;;;;15.30;8.90;;;;;;;2.97;79.14;98759.31;106132;1280;22565;-75
2022/04/11 06:36:05;;;;;;;17.60;9.00;;;;;;;3.04;78.95;98753.60;105867;1280;137154;-75
2022/04/11 06:38:33;;;;;;;16.50;9.60;;;;;;;3.12;78.97;98756.26;105990;1281;22560;-74
2022/04/11 06:41:01;;;;;;;18.40;9.50;;;;;;;3.19;78.88;98753.73;106029;1280;137436;-74
2022/04/11 06:43:28;;;;;;;13.50;7.90;;;;;;;3.28;78.50;98755.53;106013;1280;22590;-73
2022/04/11 06:46:09;;;;;;;12.40;6.90;;;;;;;3.37;78.07;98758.19;105972;1280;22549;-73
2022/04/11 06:48:36;;;;;;;15.80;7.80;;;;;;;3.44;78.43;98759.59;105795;1281;137837;-74
2022/04/11 06:51:16;;;;;;;11.30;8.00;;;;;;;3.52;77.67;98758.46;105768;1282;22701;-73
2022/04/11 06:53:43;;;;;;;14.10;7.80;;;;;;;3.59;77.69;98756.16;105781;1279;137904;-73
2022/04/11 06:56:10;;;;;;;11.70;6.70;;;;;;;3.70;77.48;98764.14;105850;1281;25505;-73
2022/04/11 06:58:37;;;;;;;13.80;7.40;;;;;;;3.75;77.10;98762.77;105826;1280;22551;-74
2022/04/11 07:01:04;;;;;;;11.70;5.20;;;;;;;3.76;76.47;98773.02;105586;1280;137264;-75
2022/04/11 07:03:32;;;;;;;13.30;7.00;;;;;;;3.78;76.33;98776.72;106140;1280;22577;-72
2022/04/11 07:05:59;;;;;;;9.50;5.30;;;;;;;3.84;75.99;98779.44;105870;1280;137628;-74
2022/04/11 07:08:26;;;;;;;11.20;6.10;;;;;;;3.90;75.25;98782.64;106468;1279;22709;-74
2022/04/11 07:10:53;;;;;;;10.90;6.90;;;;;;;3.96;75.47;98783.09;106357;1280;137443;-74
2022/04/11 07:13:20;;;;;;;11.40;6.90;;;;;;;4.07;75.90;98780.66;106480;1279;22661;-74
2022/04/11 07:15:47;;;;;;;10.60;6.50;;;;;;;4.19;75.22;98780.42;106235;1279;26517;-74
2022/04/11 07:18:14;;;;;;;14.50;7.30;;;;;;;4.30;74.49;98782.95;106150;1279;138878;-72
2022/04/11 07:20:41;;;;;;;10.40;7.10;;;;;;;4.37;74.65;98789.89;106129;1280;23136;-74
2022/04/11 07:23:08;;;;;;;13.90;7.50;;;;;;;4.44;74.49;98793.30;106183;1279;137386;-73
2022/04/11 07:25:35;;;;;;;19.70;8.50;;;;;;;4.51;73.91;98794.22;105933;1279;22815;-73
2022/04/11 07:28:03;;;;;;;12.70;7.40;;;;;;;4.60;73.42;98790.63;106210;1279;23515;-72
2022/04/11 07:30:29;;;;;;;15.00;6.60;;;;;;;4.70;73.04;98783.46;106180;1280;137935;-73
2022/04/11 07:32:56;;;;;;;14.90;7.50;;;;;;;4.79;72.82;98785.16;106312;1280;25226;-72
2022/04/11 07:35:24;;;;;;;26.80;9.70;;;;;;;4.84;73.05;98783.52;106399;1280;138046;-72
2022/04/11 07:37:51;;;;;;;16.70;8.50;;;;;;;4.93;72.85;98784.27;106750;1279;24427;-72
2022/04/11 07:40:18;;;;;;;32.10;8.30;;;;;;;5.07;72.26;98785.09;106032;1279;30773;-72
2022/04/11 07:42:45;;;;;;;14.90;5.60;;;;;;;5.18;72.59;98787.87;106109;1279;137352;-72
2022/04/11 07:45:12;;;;;;;14.80;5.70;;;;;;;5.28;70.24;98783.92;105963;1281;22550;-72
2022/04/11 07:47:39;;;;;;;10.10;5.90;;;;;;;5.31;69.76;98785.88;105524;1282;137395;-72
2022/04/11 07:50:07;;;;;;;13.50;5.80;;;;;;;5.27;69.36;98781.64;105794;1280;24315;-72
2022/04/11 07:52:37;;;;;;;11.30;5.40;;;;;;;5.29;69.10;98780.46;106088;1279;24283;-72
2022/04/11 07:55:07;;;;;;;8.00;5.50;;;;;;;5.34;68.74;98782.94;106005;1280;137216;-72
2022/04/11 07:57:33;;;;;;;8.60;4.50;;;;;;;5.34;67.44;98780.98;105850;1279;25449;-72
2022/04/11 08:00:01;;;;;;;18.60;5.80;;;;;;;5.41;67.77;98777.69;105863;1279;139195;-72
2022/04/11 08:02:28;;;;;;;9.30;3.70;;;;;;;5.57;67.17;98781.38;106058;1280;23273;-72
2022/04/11 08:04:55;;;;;;;10.90;4.00;;;;;;;5.61;67.00;98777.56;105866;1280;137152;-72
2022/04/11 08:07:22;;;;;;;10.90;3.90;;;;;;;5.64;67.42;98779.31;105850;1280;25365;-72
2022/04/11 08:09:49;;;;;;;11.50;4.40;;;;;;;5.78;66.82;98781.54;105799;1279;25404;-72
2022/04/11 08:12:19;;;;;;;11.30;4.90;;;;;;;5.97;66.62;98780.70;105801;1280;137072;-72
2022/04/11 08:14:47;;;;;;;8.20;5.10;;;;;;;6.06;65.65;98782.13;106088;1280;25264;-72
2022/04/11 08:17:14;;;;;;;12.10;3.40;;;;;;;6.11;64.90;98782.02;105554;1280;23502;-73
2022/04/11 08:19:41;;;;;;;7.60;3.50;;;;;;;6.09;62.96;98783.54;105744;1280;139005;-72
2022/04/11 08:22:08;;;;;;;7.10;3.60;;;;;;;5.98;62.12;98783.05;105871;1280;24266;-72
2022/04/11 08:24:34;;;;;;;7.70;3.20;;;;;;;5.95;63.66;98788.21;105896;1279;137266;-72
2022/04/11 08:27:02;;;;;;;6.50;2.30;;;;;;;5.96;63.56;98789.36;105768;1281;24278;-72
2022/04/11 08:29:29;;;;;;;6.60;3.20;;;;;;;5.87;63.70;98797.30;106149;1279;137514;-72
2022/04/11 08:31:56;;;;;;;7.20;3.40;;;;;;;5.67;64.93;98807.17;106035;1280;22618;-72
2022/04/11 08:34:23;;;;;;;3.30;2.30;;;;;;;5.46;65.99;98811.42;106002;1280;22538;-72
2022/04/11 08:36:50;;;;;;;3.00;1.90;;;;;;;5.18;68.03;98820.89;105802;1280;136924;-72
2022/04/11 08:39:17;;;;;;;6.10;2.50;;;;;;;4.81;70.00;98817.92;106025;1280;22563;-72
2022/04/11 08:41:44;;;;;;;5.00;2.80;;;;;;;4.55;71.43;98815.81;105818;1280;137459;-72
2022/04/11 08:44:13;;;;;;;6.30;3.00;;;;;;;4.43;71.99;98805.88;106304;1280;22569;-73
2022/04/11 08:46:41;;;;;;;6.80;3.30;;;;;;;4.43;72.98;98805.52;106090;1280;24531;-72
2022/04/11 08:49:09;;;;;;;9.60;3.70;;;;;;;4.58;74.21;98801.98;105797;1280;137952;-72
2022/04/11 08:51:37;;;;;;;9.70;5.70;;;;;;;4.70;73.43;98795.00;105929;1280;24082;-72
2022/04/11 08:54:05;;;;;;;8.50;4.90;;;;;;;4.85;73.71;98792.04;106149;1279;137572;-73
2022/04/11 08:56:34;;;;;;;9.20;4.80;;;;;;;5.05;73.51;98790.52;105886;1280;24364;-72
2022/04/11 08:59:02;;;;;;;10.50;5.30;;;;;;;5.33;73.43;98783.23;105848;1280;25404;-73
2022/04/11 09:01:29;;;;;;;9.50;5.10;;;;;;;5.57;72.81;98782.30;105930;1280;137185;-72
2022/04/11 09:03:56;;;;;;;12.60;5.20;;;;;;;5.70;71.37;98781.23;105896;1280;25257;-72
2022/04/11 09:06:36;;;;;;;9.60;5.40;;;;;;;5.81;70.88;98775.80;105763;1279;137307;-72
2022/04/11 09:09:12;;;;;;;14.40;5.60;;;;;;;5.83;69.43;98777.52;105944;1281;22584;-72
2022/04/11 09:11:41;;;;;;;9.40;4.80;;;;;;;5.84;69.62;98780.02;105916;1280;137394;-72
2022/04/11 09:14:08;;;;;;;9.10;3.50;;;;;;;5.86;68.50;98784.58;105971;1281;22722;-72
2022/04/11 09:16:53;;;;;;;10.80;4.50;;;;;;;5.90;67.80;98777.44;105931;1281;24275;-72
2022/04/11 09:19:27;;;;;;;9.60;4.70;;;;;;;5.99;67.59;98774.61;105705;1280;137504;-73
2022/04/11 09:21:55;;;;;;;6.30;3.20;;;;;;;6.10;66.93;98770.37;105947;1280;22563;-72
2022/04/11 09:24:24;;;;;;;9.70;3.70;;;;;;;6.17;66.29;98766.45;105749;1280;137138;-73
2022/04/11 09:26:56;;;;;;;13.20;4.40;;;;;;;6.26;65.06;98765.77;105801;1281;25257;-73
2022/04/11 09:29:24;;;;;;;8.50;3.90;;;;;;;6.30;64.35;98766.02;105991;1281;137376;-73
2022/04/11 09:31:52;;;;;;;7.00;3.20;;;;;;;6.34;63.75;98768.27;106014;1280;22758;-73
2022/04/11 09:34:27;;;;;;;6.80;3.00;;;;;;;6.41;62.53;98762.30;106157;1280;22555;-73
2022/04/11 09:37:00;;;;;;;8.00;2.60;;;;;;;6.52;62.38;98764.61;105982;1280;136935;-73
2022/04/11 09:39:30;;;;;;;8.40;3.20;;;;;;;6.60;62.28;98764.44;105746;1280;22630;-73
2022/04/11 09:41:57;;;;;;;11.10;3.20;;;;;;;6.63;61.86;98759.14;105932;1280;138083;-73
2022/04/11 09:44:27;;;;;;;8.60;2.90;;;;;;;6.73;62.06;98755.53;106096;1280;24865;-73
2022/04/11 09:47:00;;;;;;;7.50;3.20;;;;;;;6.97;60.86;98760.11;107209;1280;22675;-73
2022/04/11 09:49:33;;;;;;;5.00;2.80;;;;;;;7.27;60.90;98758.80;106603;1280;137333;-73
2022/04/11 09:52:07;;;;;;;3.90;2.20;;;;;;;7.39;60.34;98752.83;106832;1281;24250;-73
2022/04/11 09:54:50;;;;;;;5.70;2.90;;;;;;;7.32;60.06;98768.95;106528;1280;138076;-73
2022/04/11 09:57:38;;;;;;;4.60;2.60;;;;;;;7.09;60.33;98780.85;106644;1281;22678;-73
2022/04/11 10:00:09;;;;;;;4.10;2.90;;;;;;;6.70;62.16;98794.14;106671;1280;137098;-73
2022/04/11 10:02:44;;;;;;;9.70;4.20;;;;;;;6.28;64.40;98807.01;106839;1280;24392;-73
2022/04/11 10:05:17;;;;;;;4.50;2.80;;;;;;;5.93;66.29;98816.66;106958;1280;22630;-73
2022/04/11 10:07:52;;;;;;;4.40;2.40;;;;;;;5.65;67.05;98808.29;106469;1280;137442;-72
2022/04/11 10:10:56;;;;;;;6.10;3.20;;;;;;;5.46;68.13;98801.46;106459;1280;22559;-73
2022/04/11 10:13:27;;;;;;;7.10;3.30;;;;;;;5.36;69.10;98800.44;106793;1280;137214;-73
2022/04/11 10:15:58;;;;;;;6.90;3.00;;;;;;;5.36;70.15;98800.39;106371;1280;22648;-72
2022/04/11 10:18:28;;;;;;;3.90;2.50;;;;;;;5.42;70.23;98794.67;106136;1280;138105;-73
2022/04/11 10:21:04;;;;;;;4.70;2.80;;;;;;;5.47;70.33;98790.17;106515;1280;24364;-72
2022/04/11 10:23:49;;;;;;;3.20;2.10;;;;;;;5.65;70.00;98787.84;106421;1280;138061;-72
2022/04/11 10:26:20;;;;;;;4.10;3.00;;;;;;;5.92;70.56;98785.30;105979;1280;31449;-72
2022/04/11 10:28:54;;;;;;;6.60;3.30;;;;;;;6.23;70.88;98778.64;105965;1280;22544;-72
2022/04/11 10:31:35;;;;;;;6.50;3.30;;;;;;;6.53;70.86;98776.68;105951;1279;137593;-72
2022/04/11 10:34:03;;;;;;;4.80;3.80;;;;;;;6.86;70.04;98769.86;106250;1279;24310;-73
2022/04/11 10:36:35;;;;;;;5.90;3.80;;;;;;;7.19;70.21;98769.98;106001;1279;137447;-72
2022/04/11 10:39:16;;;;;;;5.20;3.90;;;;;;;7.49;68.27;98768.58;105946;1280;24308;-72
2022/04/11 10:41:57;;;;;;;7.20;3.90;;;;;;;7.58;66.79;98764.31;105709;1281;137045;-72
2022/04/11 10:44:40;;;;;;;7.70;3.80;;;;;;;7.69;66.37;98764.27;106146;1280;23559;-73
2022/04/11 10:47:15;;;;;;;4.00;2.80;;;;;;;7.66;65.74;98770.39;105756;1281;30660;-72
2022/04/11 10:49:49;;;;;;;5.00;3.50;;;;;;;7.52;63.56;98774.89;105610;1281;137142;-72
2022/04/11 10:52:31;;;;;;;6.00;4.00;;;;;;;7.28;64.99;98776.56;105856;1279;22659;-73
2022/04/11 10:55:09;;;;;;;;;;;;;;;7.23;65.32;98770.09;105839;1281;137069;-73
2022/04/11 10:57:39;;;;;;;3.40;2.60;;;;;;;7.34;66.75;98768.32;105690;1280;22585;-73
2022/04/11 11:00:23;;;;;;;7.70;3.90;;;;;;;7.52;67.01;98761.96;106085;1280;137775;-73
2022/04/11 11:05:27;;;;;;;5.10;3.80;;;;;;;8.02;67.67;98752.73;105982;1280;24359;-73
2022/04/11 11:08:13;;;;;;;5.70;3.60;;;;;;;8.13;65.53;98748.10;105581;1281;136924;-72
2022/04/11 11:11:21;;;;;;;7.00;3.80;;;;;;;8.01;64.81;98752.29;105883;1280;24237;-72
2022/04/11 11:13:58;;;;;;;4.20;2.90;;;;;;;7.83;63.04;98757.10;106131;1279;137043;-73
2022/04/11 11:17:05;;;;;;;4.10;2.50;;;;;;;7.66;63.96;98761.92;106238;1280;22633;-72
2022/04/11 11:20:32;;;;;;;2.90;1.60;;;;;;;7.27;60.84;98781.43;104010;1302;547778;-71
2022/04/11 11:23:13;;;;;;;3.60;2.10;;;;;;;6.82;62.14;98779.81;105180;1287;22633;-71
2022/04/11 11:25:41;;;;;;;2.80;2.20;;;;;;;6.53;63.62;98783.55;104731;1288;136011;-72
2022/04/11 11:28:14;;;;;;;5.40;2.60;;;;;;;6.33;65.49;98781.24;104814;1291;23933;-71
2022/04/11 11:30:42;;;;;;;5.10;2.60;;;;;;;6.25;65.62;98777.80;104703;1291;136551;-71
2022/04/11 11:33:18;;;;;;;2.30;1.90;;;;;;;6.28;65.95;98773.55;104606;1290;249443;-71
2022/04/11 11:36:02;;;;;;;3.40;1.70;;;;;;;6.51;66.88;98767.65;104807;1289;136900;-71
2022/04/11 11:38:32;;;;;;;3.60;2.20;;;;;;;6.79;66.03;98760.47;105072;1289;22734;-71
2022/04/11 11:41:03;;;;;;;3.60;2.10;;;;;;;6.90;65.37;98764.92;105046;1289;22586;-71